Time;durP1;ratioP1;P1;durP2;ratioP2;P2;SDS_P1;SDS_P2;PMS_P1;PMS_P2;Temp;Humidity;BMP_temperature;BMP_pressure;BME280_temperature;BME280_humidity;BME280_pressure;Samples;Min_cycle;Max_cycle;Signal;HPM_P1;HPM_P2
2021/05/30 00:01:59;;;;;;;;;;;28.00;92.60;;;;;;5104749;28;19937;-42
2021/05/30 00:04:25;;;;;;;;;;;28.00;92.70;;;;;;5105164;28;19912;-42
2021/05/30 00:06:52;;;;;;;;;;;28.00;92.70;;;;;;5104993;28;19986;-43
2021/05/30 00:09:18;;;;;;;;;;;28.00;92.70;;;;;;5104820;28;19912;-44
2021/05/30 00:11:44;;;;;;;;;;;27.90;92.80;;;;;;5104866;28;19912;-44
2021/05/30 00:14:11;;;;;;;;;;;27.90;92.80;;;;;;5103804;28;19943;-43
2021/05/30 00:16:37;;;;;;;;;;;27.90;92.80;;;;;;5104863;28;20153;-50
2021/05/30 00:19:03;;;;;;;;;;;27.90;92.80;;;;;;5104623;28;19918;-43
2021/05/30 00:21:30;;;;;;;;;;;27.90;92.90;;;;;;5104320;28;19935;-44
2021/05/30 00:23:59;;;;;;;;;;;27.90;92.90;;;;;;5104975;28;19919;-48
2021/05/30 00:26:25;;;;;;;;;;;27.90;92.90;;;;;;5087030;28;19919;-47
2021/05/30 00:28:52;;;;;;;;;;;27.90;92.90;;;;;;5104638;28;19955;-43
2021/05/30 00:31:19;;;;;;;;;;;27.90;92.90;;;;;;5104613;28;19912;-41
2021/05/30 00:33:46;;;;;;;;;;;27.90;93.00;;;;;;5104483;28;19927;-43
2021/05/30 00:36:12;;;;;;;;;;;27.90;93.00;;;;;;5104606;28;19908;-45
2021/05/30 00:38:39;;;;;;;;;;;27.80;92.90;;;;;;5104460;28;19974;-53
2021/05/30 00:41:05;;;;;;;;;;;27.80;93.00;;;;;;5104402;28;19912;-43
2021/05/30 00:43:42;;;;;;;;;;;27.80;93.10;;;;;;5104505;28;20009;-44
2021/05/30 00:46:08;;;;;;;;;;;27.80;93.10;;;;;;5104135;28;20104;-50
2021/05/30 00:48:34;;;;;;;;;;;27.80;93.20;;;;;;5104642;28;19920;-43
2021/05/30 00:51:04;;;;;;;;;;;27.80;93.10;;;;;;5104402;28;20185;-52
2021/05/30 00:53:31;;;;;;;;;;;27.80;93.10;;;;;;5104384;28;19904;-55
2021/05/30 00:55:58;;;;;;;;;;;27.80;93.10;;;;;;5124796;28;19904;-45
2021/05/30 00:58:25;;;;;;;;;;;27.80;93.10;;;;;;5125006;28;20092;-46
2021/05/30 01:00:51;;;;;;;;;;;27.80;93.10;;;;;;5125035;28;19911;-46
2021/05/30 01:03:18;;;;;;;;;;;27.70;93.10;;;;;;5124877;28;20187;-48
2021/05/30 01:05:46;;;;;;;;;;;27.70;93.20;;;;;;5124857;28;19915;-50
2021/05/30 01:08:12;;;;;;;;;;;27.70;93.30;;;;;;5124622;28;19935;-45
2021/05/30 01:10:43;;;;;;;;;;;27.70;93.30;;;;;;5124491;28;19911;-53
2021/05/30 01:13:11;;;;;;;;;;;27.70;93.30;;;;;;5123502;28;19971;-42
2021/05/30 01:15:37;;;;;;;;;;;27.70;93.30;;;;;;5106342;28;19912;-45
2021/05/30 01:18:04;;;;;;;;;;;27.70;93.30;;;;;;5124470;28;20212;-51
2021/05/30 01:20:33;;;;;;;;;;;27.70;93.20;;;;;;5124911;28;19912;-51
2021/05/30 01:23:06;;;;;;;;;;;27.70;93.10;;;;;;5124315;28;19942;-49
2021/05/30 01:25:33;;;;;;;;;;;27.70;93.10;;;;;;5125054;28;19957;-48
2021/05/30 01:27:59;;;;;;;;;;;27.70;93.10;;;;;;5124424;28;19907;-47
2021/05/30 01:30:25;;;;;;;;;;;27.70;93.10;;;;;;5106474;28;20246;-44
2021/05/30 01:32:52;;;;;;;;;;;27.70;93.10;;;;;;5123637;28;19904;-46
2021/05/30 01:35:19;;;;;;;;;;;27.70;93.00;;;;;;5127195;28;19947;-48
2021/05/30 01:37:45;;;;;;;;;;;27.70;93.00;;;;;;5127899;28;19938;-46
2021/05/30 01:40:12;;;;;;;;;;;27.60;93.10;;;;;;5128699;28;19945;-45
2021/05/30 01:42:38;;;;;;;;;;;27.60;93.10;;;;;;5128167;28;20241;-43
2021/05/30 01:45:06;;;;;;;;;;;27.60;93.00;;;;;;5128135;28;19915;-51
2021/05/30 01:47:36;;;;;;;;;;;27.60;93.00;;;;;;5127848;28;19929;-45
2021/05/30 01:50:03;;;;;;;;;;;27.60;93.00;;;;;;5128216;28;19911;-48
2021/05/30 01:52:29;;;;;;;;;;;27.60;93.00;;;;;;5092642;28;19908;-45
2021/05/30 01:54:55;;;;;;;;;;;27.60;92.90;;;;;;5126814;28;19915;-45
2021/05/30 01:57:21;;;;;;;;;;;27.60;92.90;;;;;;5109098;28;19910;-42
2021/05/30 01:59:48;;;;;;;;;;;27.60;92.90;;;;;;5128012;28;19912;-50
2021/05/30 02:02:14;;;;;;;;;;;27.60;92.80;;;;;;5127919;28;19966;-48
2021/05/30 02:04:43;;;;;;;;;;;27.60;92.80;;;;;;5127800;28;20179;-44
2021/05/30 02:07:10;;;;;;;;;;;27.60;92.80;;;;;;5127685;28;19971;-48
2021/05/30 02:09:37;;;;;;;;;;;27.60;92.80;;;;;;5127899;28;19961;-48
2021/05/30 02:12:09;;;;;;;;;;;27.60;92.80;;;;;;5127636;28;19966;-47
2021/05/30 02:14:37;;;;;;;;;;;27.50;92.80;;;;;;5127685;28;19912;-48
2021/05/30 02:17:03;;;;;;;;;;;27.50;92.80;;;;;;5127733;28;20127;-43
2021/05/30 02:19:30;;;;;;;;;;;27.50;92.70;;;;;;5127401;28;20115;-47
2021/05/30 02:21:56;;;;;;;;;;;27.50;92.70;;;;;;5109434;28;19908;-44
2021/05/30 02:24:22;;;;;;;;;;;27.50;92.60;;;;;;5109237;28;19912;-49
2021/05/30 02:26:49;;;;;;;;;;;27.50;92.50;;;;;;5127290;28;19907;-46
2021/05/30 02:29:31;;;;;;;;;;;27.50;92.40;;;;;;5127300;28;20192;-50
2021/05/30 02:31:57;;;;;;;;;;;27.50;92.30;;;;;;5127449;28;20196;-46
2021/05/30 02:34:23;;;;;;;;;;;27.50;92.30;;;;;;5109255;28;19965;-46
2021/05/30 02:36:50;;;;;;;;;;;27.40;92.30;;;;;;5108888;28;19915;-47
2021/05/30 02:39:17;;;;;;;;;;;27.40;92.20;;;;;;5109119;28;20073;-47
2021/05/30 02:41:43;;;;;;;;;;;27.40;92.30;;;;;;5127086;28;19914;-53
2021/05/30 02:44:09;;;;;;;;;;;27.40;92.20;;;;;;5127001;28;19945;-44
2021/05/30 02:46:35;;;;;;;;;;;27.40;92.20;;;;;;5126288;28;19915;-46
2021/05/30 02:49:04;;;;;;;;;;;27.40;92.10;;;;;;5126890;28;20180;-49
2021/05/30 02:51:32;;;;;;;;;;;27.40;92.00;;;;;;5126480;28;20235;-48
2021/05/30 02:53:58;;;;;;;;;;;27.40;91.90;;;;;;5126514;28;19912;-42
2021/05/30 02:56:26;;;;;;;;;;;27.40;91.80;;;;;;5108378;28;19911;-50
2021/05/30 02:58:52;;;;;;;;;;;27.40;91.80;;;;;;5126631;28;19911;-48
2021/05/30 03:01:19;;;;;;;;;;;27.40;91.70;;;;;;5125595;28;19908;-45
2021/05/30 03:03:45;;;;;;;;;;;27.40;91.60;;;;;;5125459;28;19914;-43
2021/05/30 03:06:11;;;;;;;;;;;27.40;91.50;;;;;;5125264;28;19916;-49
2021/05/30 03:08:37;;;;;;;;;;;27.40;91.40;;;;;;5107186;28;19975;-51
2021/05/30 03:11:04;;;;;;;;;;;27.50;91.30;;;;;;5107600;28;19908;-45
2021/05/30 03:13:30;;;;;;;;;;;27.50;91.30;;;;;;5125497;28;19908;-47
2021/05/30 03:15:56;;;;;;;;;;;27.50;91.30;;;;;;5124701;28;20215;-44
2021/05/30 03:18:22;;;;;;;;;;;27.50;91.30;;;;;;5125361;28;19907;-47
2021/05/30 03:20:49;;;;;;;;;;;27.50;91.30;;;;;;5125234;28;19965;-50
2021/05/30 03:23:15;;;;;;;;;;;27.50;91.20;;;;;;5125178;28;19915;-50
2021/05/30 03:25:41;;;;;;;;;;;27.50;91.10;;;;;;5125124;28;20223;-42
2021/05/30 03:28:07;;;;;;;;;;;27.50;91.00;;;;;;5125212;28;19904;-46
2021/05/30 03:30:33;;;;;;;;;;;27.50;91.10;;;;;;5125187;28;19919;-42
2021/05/30 03:33:00;;;;;;;;;;;27.40;91.00;;;;;;5125283;28;19919;-44
2021/05/30 03:35:27;;;;;;;;;;;27.40;91.00;;;;;;5125847;28;19914;-44
2021/05/30 03:37:53;;;;;;;;;;;27.50;91.00;;;;;;5125798;28;19929;-46
2021/05/30 03:40:29;;;;;;;;;;;27.50;90.90;;;;;;5108046;28;19908;-45
2021/05/30 03:42:55;;;;;;;;;;;27.50;90.80;;;;;;5125818;28;19908;-48
2021/05/30 03:45:22;;;;;;;;;;;27.50;90.70;;;;;;5125521;28;19912;-43
2021/05/30 03:47:49;;;;;;;;;;;27.40;90.80;;;;;;5125737;28;19911;-45
2021/05/30 03:50:15;;;;;;;;;;;27.40;90.80;;;;;;5125082;28;19912;-45
2021/05/30 03:52:41;;;;;;;;;;;27.40;90.90;;;;;;5125408;28;19915;-47
2021/05/30 03:55:08;;;;;;;;;;;27.40;90.90;;;;;;5125450;28;19958;-46
2021/05/30 03:57:35;;;;;;;;;;;27.50;90.90;;;;;;5124837;28;19903;-44
2021/05/30 04:00:04;;;;;;;;;;;27.40;90.80;;;;;;5125373;28;19919;-47
2021/05/30 04:02:30;;;;;;;;;;;27.40;90.70;;;;;;5125559;28;19903;-47
2021/05/30 04:04:56;;;;;;;;;;;27.50;90.70;;;;;;5125237;28;19918;-50
2021/05/30 04:07:23;;;;;;;;;;;27.50;90.70;;;;;;5125310;28;19910;-45
2021/05/30 04:09:49;;;;;;;;;;;27.50;90.60;;;;;;5125542;28;19986;-47
2021/05/30 04:12:15;;;;;;;;;;;27.50;90.60;;;;;;5125358;28;19911;-48
2021/05/30 04:14:41;;;;;;;;;;;27.50;90.50;;;;;;5124945;28;19916;-47
2021/05/30 04:17:07;;;;;;;;;;;27.50;90.50;;;;;;5125317;28;19910;-46
2021/05/30 04:19:34;;;;;;;;;;;27.50;90.50;;;;;;5125461;28;19919;-45
2021/05/30 04:22:00;;;;;;;;;;;27.50;90.50;;;;;;5124916;28;19904;-51
2021/05/30 04:24:26;;;;;;;;;;;27.50;90.40;;;;;;5125217;28;19996;-48
2021/05/30 04:26:53;;;;;;;;;;;27.50;90.40;;;;;;5125028;28;19946;-44
2021/05/30 04:29:19;;;;;;;;;;;27.50;90.40;;;;;;5124785;28;19918;-48
2021/05/30 04:31:45;;;;;;;;;;;27.50;90.40;;;;;;5125024;28;19908;-45
2021/05/30 04:34:11;;;;;;;;;;;27.40;90.40;;;;;;5106747;28;19920;-50
2021/05/30 04:36:38;;;;;;;;;;;27.40;90.40;;;;;;5124744;28;19904;-51
2021/05/30 04:39:04;;;;;;;;;;;27.40;90.40;;;;;;5125021;28;19920;-49
2021/05/30 04:41:30;;;;;;;;;;;27.40;90.40;;;;;;5125054;28;20194;-52
2021/05/30 04:43:56;;;;;;;;;;;27.40;90.40;;;;;;5124612;28;20176;-44
2021/05/30 04:46:22;;;;;;;;;;;27.40;90.50;;;;;;5124346;28;19920;-49
2021/05/30 04:48:48;;;;;;;;;;;27.40;90.50;;;;;;5124802;28;19904;-45
2021/05/30 04:51:15;;;;;;;;;;;27.30;90.50;;;;;;5124781;28;19904;-43
2021/05/30 04:53:42;;;;;;;;;;;27.30;90.50;;;;;;5124602;28;19904;-45
2021/05/30 04:56:09;;;;;;;;;;;27.30;90.60;;;;;;5124833;28;19908;-53
2021/05/30 04:58:35;;;;;;;;;;;27.30;90.60;;;;;;5124411;28;19911;-49
2021/05/30 05:01:06;;;;;;;;;;;27.30;90.70;;;;;;5124339;28;19908;-46
2021/05/30 05:03:33;;;;;;;;;;;27.30;90.70;;;;;;5124475;28;19903;-49
2021/05/30 05:05:59;;;;;;;;;;;27.20;90.70;;;;;;5124557;28;19915;-45
2021/05/30 05:08:25;;;;;;;;;;;27.20;90.80;;;;;;5126128;28;19910;-53
2021/05/30 05:10:52;;;;;;;;;;;27.20;90.70;;;;;;5128649;28;19912;-49
2021/05/30 05:13:18;;;;;;;;;;;27.20;90.80;;;;;;5128323;28;20207;-48
2021/05/30 05:15:45;;;;;;;;;;;27.20;90.90;;;;;;5129045;28;19933;-45
2021/05/30 05:18:14;;;;;;;;;;;27.20;90.80;;;;;;5127335;28;20286;-48
2021/05/30 05:20:40;;;;;;;;;;;27.20;90.80;;;;;;5127434;28;19935;-48
2021/05/30 05:23:07;;;;;;;;;;;27.20;90.70;;;;;;5126737;28;19904;-50
2021/05/30 05:25:35;;;;;;;;;;;27.20;90.70;;;;;;5127298;28;19915;-52
2021/05/30 05:28:05;;;;;;;;;;;27.20;90.70;;;;;;5126856;28;19974;-44
2021/05/30 05:30:32;;;;;;;;;;;27.20;90.70;;;;;;5127140;28;19927;-52
2021/05/30 05:32:59;;;;;;;;;;;27.10;90.60;;;;;;5127620;28;19904;-54
2021/05/30 05:35:26;;;;;;;;;;;27.20;90.70;;;;;;5128614;28;19911;-48
2021/05/30 05:37:55;;;;;;;;;;;27.20;90.70;;;;;;5128235;28;19935;-46
2021/05/30 05:40:22;;;;;;;;;;;27.10;90.90;;;;;;5128682;28;19912;-53
2021/05/30 05:42:48;;;;;;;;;;;27.10;90.90;;;;;;5128304;28;19938;-49
2021/05/30 05:45:15;;;;;;;;;;;27.10;90.90;;;;;;5128436;28;20005;-48
2021/05/30 05:47:43;;;;;;;;;;;27.10;91.10;;;;;;5127975;28;20152;-49
2021/05/30 05:50:16;;;;;;;;;;;27.10;91.10;;;;;;5128434;28;19967;-50
2021/05/30 05:52:43;;;;;;;;;;;27.10;91.10;;;;;;5128026;28;19911;-48
2021/05/30 05:55:10;;;;;;;;;;;27.10;91.20;;;;;;5128368;28;19911;-54
2021/05/30 05:57:36;;;;;;;;;;;27.10;91.20;;;;;;5127973;28;19911;-45
2021/05/30 06:00:07;;;;;;;;;;;27.10;91.20;;;;;;5128158;28;19912;-49
2021/05/30 06:02:33;;;;;;;;;;;27.00;91.20;;;;;;5127869;28;19911;-47
2021/05/30 06:04:59;;;;;;;;;;;27.10;91.30;;;;;;5128078;28;20184;-46
2021/05/30 06:07:25;;;;;;;;;;;27.00;91.40;;;;;;5127600;28;19970;-48
2021/05/30 06:09:52;;;;;;;;;;;27.00;91.50;;;;;;5128204;28;20081;-49
2021/05/30 06:12:18;;;;;;;;;;;27.00;91.50;;;;;;5127782;28;19903;-56
2021/05/30 06:14:45;;;;;;;;;;;27.00;91.60;;;;;;5127794;28;19911;-53
2021/05/30 06:17:11;;;;;;;;;;;27.00;91.60;;;;;;5127540;28;19939;-52
2021/05/30 06:19:38;;;;;;;;;;;27.00;91.60;;;;;;5126827;28;20018;-51
2021/05/30 06:22:04;;;;;;;;;;;26.90;91.60;;;;;;5127334;28;19978;-44
2021/05/30 06:24:31;;;;;;;;;;;26.90;91.60;;;;;;5127627;28;20239;-47
2021/05/30 06:26:58;;;;;;;;;;;27.00;91.50;;;;;;5127394;28;19943;-49
2021/05/30 06:29:25;;;;;;;;;;;26.90;91.50;;;;;;5127363;28;19954;-48
2021/05/30 06:31:51;;;;;;;;;;;27.00;91.50;;;;;;5127332;28;19908;-44
2021/05/30 06:34:18;;;;;;;;;;;27.00;91.50;;;;;;5127114;28;19975;-48
2021/05/30 06:36:45;;;;;;;;;;;26.90;91.50;;;;;;5127116;28;19968;-53
2021/05/30 06:39:11;;;;;;;;;;;26.90;91.50;;;;;;5127193;28;19914;-48
2021/05/30 06:41:37;;;;;;;;;;;26.90;91.50;;;;;;5127022;28;20104;-50
2021/05/30 06:44:04;;;;;;;;;;;26.90;91.50;;;;;;5127050;28;19907;-48
2021/05/30 06:46:31;;;;;;;;;;;27.00;91.50;;;;;;5126815;28;19915;-47
2021/05/30 06:48:57;;;;;;;;;;;26.90;91.50;;;;;;5127134;28;19912;-49
2021/05/30 06:51:27;;;;;;;;;;;26.90;91.50;;;;;;5126845;28;19904;-51
2021/05/30 06:53:53;;;;;;;;;;;26.90;91.50;;;;;;5126862;28;19912;-51
2021/05/30 06:56:19;;;;;;;;;;;26.90;91.40;;;;;;5127109;28;20128;-44
2021/05/30 06:58:46;;;;;;;;;;;26.90;91.40;;;;;;5108422;28;19904;-46
2021/05/30 07:01:12;;;;;;;;;;;26.90;91.40;;;;;;5126777;28;20184;-46
2021/05/30 07:03:39;;;;;;;;;;;26.90;91.40;;;;;;5126582;28;20184;-48
2021/05/30 07:06:05;;;;;;;;;;;26.90;91.40;;;;;;5126441;28;19912;-50
2021/05/30 07:08:32;;;;;;;;;;;26.90;91.40;;;;;;5126460;28;20242;-46
2021/05/30 07:10:58;;;;;;;;;;;26.90;91.30;;;;;;5126848;28;19904;-45
2021/05/30 07:13:24;;;;;;;;;;;26.90;91.30;;;;;;5126549;28;19974;-57
2021/05/30 07:15:52;;;;;;;;;;;26.90;91.40;;;;;;5126865;28;20191;-43
2021/05/30 07:18:22;;;;;;;;;;;26.90;91.30;;;;;;5126355;28;19904;-43
2021/05/30 07:20:48;;;;;;;;;;;26.90;91.40;;;;;;5126230;28;19918;-46
2021/05/30 07:23:15;;;;;;;;;;;26.80;91.30;;;;;;5126126;28;19915;-55
2021/05/30 07:25:41;;;;;;;;;;;26.80;91.40;;;;;;5126647;28;20091;-51
2021/05/30 07:28:08;;;;;;;;;;;26.80;91.40;;;;;;5126334;28;19904;-57
2021/05/30 07:30:34;;;;;;;;;;;26.80;91.40;;;;;;5126405;28;20145;-51
2021/05/30 07:33:01;;;;;;;;;;;26.80;91.60;;;;;;5126248;28;19971;-54
2021/05/30 07:35:28;;;;;;;;;;;26.80;91.60;;;;;;5126434;28;19912;-49
2021/05/30 07:37:55;;;;;;;;;;;26.80;91.70;;;;;;5125913;28;19910;-45
2021/05/30 07:40:21;;;;;;;;;;;26.80;91.80;;;;;;5126397;28;19918;-49
2021/05/30 07:42:47;;;;;;;;;;;26.70;91.70;;;;;;5125859;28;19903;-45
2021/05/30 07:45:14;;;;;;;;;;;26.70;91.70;;;;;;5126018;28;19943;-48
2021/05/30 07:47:41;;;;;;;;;;;26.70;91.60;;;;;;5125743;28;19983;-48
2021/05/30 07:50:08;;;;;;;;;;;26.70;91.60;;;;;;5126217;28;19943;-44
2021/05/30 07:52:34;;;;;;;;;;;26.70;91.50;;;;;;5125986;28;19908;-48
2021/05/30 07:55:00;;;;;;;;;;;26.70;91.50;;;;;;5125893;28;19969;-47
2021/05/30 07:57:26;;;;;;;;;;;26.70;91.50;;;;;;5125741;28;19904;-46
2021/05/30 07:59:52;;;;;;;;;;;26.70;91.50;;;;;;5125775;28;19912;-46
2021/05/30 08:02:19;;;;;;;;;;;26.70;91.50;;;;;;5125566;28;20100;-47
2021/05/30 08:04:45;;;;;;;;;;;26.70;91.60;;;;;;5125489;28;19911;-46
2021/05/30 08:07:11;;;;;;;;;;;26.70;91.70;;;;;;5125199;28;19914;-50
2021/05/30 08:09:37;;;;;;;;;;;26.70;91.70;;;;;;5125694;28;19912;-49
2021/05/30 08:12:04;;;;;;;;;;;26.70;91.60;;;;;;5125536;28;19911;-46
2021/05/30 08:14:31;;;;;;;;;;;26.70;91.50;;;;;;5125443;28;19912;-48
2021/05/30 08:16:58;;;;;;;;;;;26.70;91.50;;;;;;5125447;28;19911;-50
2021/05/30 08:19:24;;;;;;;;;;;26.60;91.50;;;;;;5125397;28;19912;-45
2021/05/30 08:21:50;;;;;;;;;;;26.70;91.60;;;;;;5125270;28;19911;-53
2021/05/30 08:24:17;;;;;;;;;;;26.60;91.50;;;;;;5125295;28;19952;-48
2021/05/30 08:26:43;;;;;;;;;;;26.70;91.60;;;;;;5125030;28;19908;-50
2021/05/30 08:29:09;;;;;;;;;;;26.60;91.50;;;;;;5125302;28;19913;-49
2021/05/30 08:31:35;;;;;;;;;;;26.60;91.40;;;;;;5124948;28;19971;-55
2021/05/30 08:34:01;;;;;;;;;;;26.60;91.40;;;;;;5125240;28;19919;-48
2021/05/30 08:36:28;;;;;;;;;;;26.60;91.30;;;;;;5125030;28;19928;-51
2021/05/30 08:38:54;;;;;;;;;;;26.60;91.30;;;;;;5124939;28;19975;-54
2021/05/30 08:41:20;;;;;;;;;;;26.60;91.20;;;;;;5125111;28;19915;-50
2021/05/30 08:43:47;;;;;;;;;;;26.60;91.20;;;;;;5124467;28;19904;-45
2021/05/30 08:46:13;;;;;;;;;;;26.60;91.10;;;;;;5124590;28;19960;-46
2021/05/30 08:48:39;;;;;;;;;;;26.60;91.10;;;;;;5124811;28;20100;-45
2021/05/30 08:51:06;;;;;;;;;;;26.60;91.00;;;;;;5124935;28;19907;-48
2021/05/30 08:53:37;;;;;;;;;;;26.60;91.10;;;;;;5124601;28;19904;-41
2021/05/30 08:56:04;;;;;;;;;;;26.60;91.30;;;;;;5124776;28;19946;-44
2021/05/30 08:58:42;;;;;;;;;;;26.60;91.30;;;;;;5124712;28;19910;-52
2021/05/30 09:01:11;;;;;;;;;;;26.60;91.30;;;;;;5124603;28;19903;-45
2021/05/30 09:03:49;;;;;;;;;;;26.60;91.30;;;;;;5124669;28;19904;-50
2021/05/30 09:06:16;;;;;;;;;;;26.60;91.40;;;;;;5124553;28;19908;-51
2021/05/30 09:08:42;;;;;;;;;;;26.60;91.50;;;;;;5124715;28;19984;-52
2021/05/30 09:11:08;;;;;;;;;;;26.50;91.60;;;;;;5124707;28;19908;-48
2021/05/30 09:13:52;;;;;;;;;;;26.50;91.60;;;;;;5124397;28;19904;-47
2021/05/30 09:16:21;;;;;;;;;;;26.60;91.70;;;;;;5124690;28;19903;-54
2021/05/30 09:18:47;;;;;;;;;;;26.50;91.70;;;;;;5124517;28;20099;-46
2021/05/30 09:21:14;;;;;;;;;;;26.50;91.70;;;;;;5124659;28;19960;-56
2021/05/30 09:23:41;;;;;;;;;;;26.50;91.60;;;;;;5124502;28;19910;-44
2021/05/30 09:26:19;;;;;;;;;;;26.50;91.50;;;;;;5124414;28;19986;-44
2021/05/30 09:29:03;;;;;;;;;;;26.50;91.40;;;;;;5124489;28;19904;-46
2021/05/30 09:31:30;;;;;;;;;;;26.50;91.30;;;;;;5124391;28;19903;-48
2021/05/30 09:33:56;;;;;;;;;;;26.50;91.30;;;;;;5124712;28;19912;-45
2021/05/30 09:36:22;;;;;;;;;;;26.60;91.30;;;;;;5124390;28;19904;-47
2021/05/30 09:39:00;;;;;;;;;;;26.60;91.40;;;;;;5124352;28;20131;-47
2021/05/30 09:41:26;;;;;;;;;;;26.50;91.40;;;;;;5124441;28;19904;-51
2021/05/30 09:43:53;;;;;;;;;;;26.50;91.40;;;;;;5124440;28;19912;-55
2021/05/30 09:46:24;;;;;;;;;;;26.50;91.40;;;;;;5123979;28;19916;-46
2021/05/30 09:48:50;;;;;;;;;;;26.50;91.30;;;;;;5124321;28;19930;-49
2021/05/30 09:51:29;;;;;;;;;;;26.50;91.40;;;;;;5124560;28;19926;-43
2021/05/30 09:54:02;;;;;;;;;;;26.50;91.50;;;;;;5124461;28;20092;-49
2021/05/30 09:56:39;;;;;;;;;;;26.40;91.50;;;;;;5127602;28;19939;-45
2021/05/30 09:59:26;;;;;;;;;;;26.40;91.50;;;;;;5128025;28;20084;-42
2021/05/30 10:01:58;;;;;;;;;;;26.50;91.60;;;;;;5127796;28;20268;-52
2021/05/30 10:04:27;;;;;;;;;;;26.40;91.70;;;;;;5128004;28;19933;-43
2021/05/30 10:06:55;;;;;;;;;;;26.50;91.70;;;;;;5127898;28;19986;-53
2021/05/30 10:09:22;;;;;;;;;;;26.40;91.70;;;;;;5127777;28;19923;-45
2021/05/30 10:11:48;;;;;;;;;;;26.40;91.80;;;;;;5127757;28;19911;-46
2021/05/30 10:14:14;;;;;;;;;;;26.40;91.80;;;;;;5127899;28;19912;-52
2021/05/30 10:16:41;;;;;;;;;;;26.40;91.80;;;;;;5127361;28;19904;-41
2021/05/30 10:19:08;;;;;;;;;;;26.40;91.70;;;;;;5127679;28;19918;-43
2021/05/30 10:21:34;;;;;;;;;;;26.40;91.60;;;;;;5127508;28;19941;-43
2021/05/30 10:24:00;;;;;;;;;;;26.40;91.70;;;;;;5127459;28;19969;-48
2021/05/30 10:26:27;;;;;;;;;;;26.40;91.70;;;;;;5127293;28;19908;-48
2021/05/30 10:29:02;;;;;;;;;;;26.40;91.70;;;;;;5127340;28;19916;-48
2021/05/30 10:31:33;;;;;;;;;;;26.40;91.60;;;;;;5109022;28;20203;-47
2021/05/30 10:34:11;;;;;;;;;;;26.30;91.60;;;;;;5127154;28;19964;-48
2021/05/30 10:36:42;;;;;;;;;;;26.40;91.80;;;;;;5108939;28;19917;-44
2021/05/30 10:39:26;;;;;;;;;;;26.30;91.50;;;;;;5127445;28;19975;-43
2021/05/30 10:42:20;;;;;;;;;;;26.40;91.50;;;;;;5127075;28;19904;-46
2021/05/30 10:44:53;;;;;;;;;;;26.40;91.40;;;;;;5124417;28;19911;-47
2021/05/30 10:47:19;;;;;;;;;;;26.40;91.30;;;;;;5126858;28;19923;-44
2021/05/30 10:50:04;;;;;;;;;;;26.40;91.20;;;;;;5127335;28;20197;-51
2021/05/30 10:52:34;;;;;;;;;;;26.40;91.20;;;;;;5126803;28;19966;-45
2021/05/30 10:55:17;;;;;;;;;;;26.40;91.10;;;;;;5127145;28;19912;-42
2021/05/30 10:57:45;;;;;;;;;;;26.40;91.10;;;;;;5126685;28;20233;-42
2021/05/30 11:00:21;;;;;;;;;;;26.50;91.00;;;;;;5127036;28;19919;-45
2021/05/30 11:03:03;;;;;;;;;;;26.50;91.00;;;;;;5126604;28;19911;-48
2021/05/30 11:05:42;;;;;;;;;;;26.50;90.90;;;;;;5126651;28;20199;-44
2021/05/30 11:08:29;;;;;;;;;;;26.40;90.80;;;;;;5126493;28;19961;-45
2021/05/30 11:11:13;;;;;;;;;;;26.50;90.90;;;;;;5126444;28;19912;-48
2021/05/30 11:13:52;;;;;;;;;;;26.50;90.80;;;;;;5126450;28;20127;-46
2021/05/30 11:16:23;;;;;;;;;;;26.50;90.80;;;;;;5126453;28;19904;-44
2021/05/30 11:19:15;;;;;;;;;;;26.40;90.80;;;;;;5126376;28;19931;-50
2021/05/30 11:21:45;;;;;;;;;;;26.50;90.90;;;;;;5122542;28;19904;-44
2021/05/30 11:24:11;;;;;;;;;;;26.50;90.90;;;;;;5126344;28;19943;-48
2021/05/30 11:26:38;;;;;;;;;;;26.50;90.80;;;;;;5126342;28;19912;-44
2021/05/30 11:29:05;;;;;;;;;;;26.50;90.90;;;;;;5126439;28;19975;-47
2021/05/30 11:31:32;;;;;;;;;;;26.60;91.00;;;;;;5126022;28;19939;-44
2021/05/30 11:34:04;;;;;;;;;;;26.50;90.90;;;;;;5108050;28;19918;-48
2021/05/30 11:36:31;;;;;;;;;;;26.60;91.00;;;;;;5125917;28;19911;-44
2021/05/30 11:38:59;;;;;;;;;;;26.60;91.10;;;;;;5125922;28;19916;-43
2021/05/30 11:41:26;;;;;;;;;;;26.60;91.00;;;;;;5107986;28;19908;-46
2021/05/30 11:43:56;;;;;;;;;;;26.60;90.90;;;;;;5125967;28;19912;-49
2021/05/30 11:46:23;;;;;;;;;;;26.60;90.80;;;;;;5125707;28;19968;-47
2021/05/30 11:49:09;;;;;;;;;;;26.60;90.80;;;;;;5125904;28;20103;-45
2021/05/30 11:51:57;;;;;;;;;;;26.70;90.90;;;;;;5125729;28;19908;-45
2021/05/30 11:54:23;;;;;;;;;;;26.70;90.90;;;;;;5125267;28;20249;-44
2021/05/30 11:56:51;;;;;;;;;;;26.70;90.80;;;;;;5135124;27;20140;-46
2021/05/30 11:59:27;;;;;;;;;;;26.70;90.80;;;;;;5134306;27;19924;-44
2021/05/30 12:01:53;;;;;;;;;;;26.70;90.90;;;;;;5134915;27;19939;-44
2021/05/30 12:04:22;;;;;;;;;;;26.70;90.90;;;;;;5136512;27;20241;-49
2021/05/30 12:06:49;;;;;;;;;;;26.70;91.20;;;;;;5134446;27;19908;-43
2021/05/30 12:09:15;;;;;;;;;;;26.80;90.90;;;;;;5134255;27;19915;-46
2021/05/30 12:11:41;;;;;;;;;;;26.80;90.80;;;;;;5136414;27;20087;-42
2021/05/30 12:14:07;;;;;;;;;;;26.80;90.90;;;;;;5134761;27;19915;-45
2021/05/30 12:16:34;;;;;;;;;;;26.80;91.20;;;;;;5134691;27;19910;-49
2021/05/30 12:19:01;;;;;;;;;;;26.80;90.90;;;;;;5135334;27;20211;-50
2021/05/30 12:21:38;;;;;;;;;;;26.90;91.00;;;;;;5134716;27;19903;-44
2021/05/30 12:24:05;;;;;;;;;;;26.90;91.10;;;;;;5131399;27;19918;-51
2021/05/30 12:26:31;;;;;;;;;;;26.90;91.20;;;;;;5116583;28;20148;-44
2021/05/30 12:28:58;;;;;;;;;;;26.90;91.20;;;;;;5135929;27;19966;-51
2021/05/30 12:31:24;;;;;;;;;;;26.90;91.20;;;;;;5133632;27;19904;-48
2021/05/30 12:34:11;;;;;;;;;;;26.90;91.10;;;;;;5134149;27;20133;-47
2021/05/30 12:36:44;;;;;;;;;;;26.90;91.20;;;;;;5126190;28;19958;-51
2021/05/30 12:39:12;;;;;;;;;;;27.00;91.10;;;;;;5123777;28;19912;-45
2021/05/30 12:41:40;;;;;;;;;;;27.00;91.00;;;;;;5124011;28;19910;-46
2021/05/30 12:44:08;;;;;;;;;;;27.00;91.00;;;;;;5124773;28;19912;-52
2021/05/30 12:46:36;;;;;;;;;;;27.00;91.10;;;;;;5124569;28;20135;-47
2021/05/30 12:49:12;;;;;;;;;;;27.10;91.20;;;;;;5124190;28;20146;-49
2021/05/30 12:51:39;;;;;;;;;;;27.10;91.10;;;;;;5124730;28;19939;-48
2021/05/30 12:54:18;;;;;;;;;;;27.10;91.20;;;;;;5124772;28;19911;-42
2021/05/30 12:56:46;;;;;;;;;;;27.10;91.20;;;;;;5124702;28;19903;-46
2021/05/30 12:59:17;;;;;;;;;;;27.10;91.30;;;;;;5124800;28;19916;-48
2021/05/30 13:01:46;;;;;;;;;;;27.20;91.30;;;;;;5124462;28;19904;-47
2021/05/30 13:04:23;;;;;;;;;;;27.10;91.30;;;;;;5124086;28;19912;-46
2021/05/30 13:06:57;;;;;;;;;;;27.20;91.40;;;;;;5122410;28;19908;-51
2021/05/30 13:09:27;;;;;;;;;;;27.20;91.40;;;;;;5124460;28;19911;-50
2021/05/30 13:11:54;;;;;;;;;;;27.20;91.50;;;;;;5124587;28;19919;-50
2021/05/30 13:14:35;;;;;;;;;;;27.20;91.60;;;;;;5124605;28;20077;-47
2021/05/30 13:17:17;;;;;;;;;;;27.20;91.60;;;;;;5124620;28;19910;-46
2021/05/30 13:20:01;;;;;;;;;;;27.30;91.70;;;;;;5124747;28;19919;-47
2021/05/30 13:22:28;;;;;;;;;;;27.30;91.90;;;;;;5124230;28;19903;-50
2021/05/30 13:24:54;;;;;;;;;;;27.30;91.80;;;;;;5125038;28;19912;-46
2021/05/30 13:27:24;;;;;;;;;;;27.40;91.80;;;;;;5124495;28;20196;-44
2021/05/30 13:30:10;;;;;;;;;;;27.40;91.70;;;;;;5127392;28;19916;-46
2021/05/30 13:32:37;;;;;;;;;;;27.40;91.80;;;;;;5128440;28;19904;-44
2021/05/30 13:35:04;;;;;;;;;;;27.50;91.80;;;;;;5128850;28;20153;-44
2021/05/30 13:37:31;;;;;;;;;;;27.50;91.80;;;;;;5109914;28;19908;-50
2021/05/30 13:39:58;;;;;;;;;;;27.50;91.80;;;;;;5128875;28;20091;-46
2021/05/30 13:42:25;;;;;;;;;;;27.60;91.90;;;;;;5128496;28;19910;-45
2021/05/30 13:44:51;;;;;;;;;;;27.60;91.90;;;;;;5128663;28;20263;-47
2021/05/30 13:47:18;;;;;;;;;;;27.60;91.90;;;;;;5109917;28;20200;-47
2021/05/30 13:49:44;;;;;;;;;;;27.70;91.90;;;;;;5128777;28;19912;-47
2021/05/30 13:52:11;;;;;;;;;;;27.70;92.00;;;;;;5127611;28;20207;-47
2021/05/30 13:54:39;;;;;;;;;;;27.70;91.90;;;;;;5109864;28;19912;-43
2021/05/30 13:57:05;;;;;;;;;;;27.80;91.70;;;;;;5128451;28;19908;-53
2021/05/30 13:59:32;;;;;;;;;;;27.80;91.70;;;;;;5128329;28;20255;-48
2021/05/30 14:01:58;;;;;;;;;;;27.80;91.50;;;;;;5127792;28;19907;-51
2021/05/30 14:04:25;;;;;;;;;;;27.80;91.60;;;;;;5127689;28;19986;-50
2021/05/30 14:06:52;;;;;;;;;;;27.80;91.50;;;;;;5127662;28;20121;-52
2021/05/30 14:09:19;;;;;;;;;;;27.80;91.50;;;;;;5127100;28;19922;-47
2021/05/30 14:11:45;;;;;;;;;;;27.80;91.50;;;;;;5127141;28;20193;-48
2021/05/30 14:14:11;;;;;;;;;;;27.80;91.40;;;;;;5127598;28;20180;-42
2021/05/30 14:16:38;;;;;;;;;;;27.90;91.40;;;;;;5127688;28;19918;-46
2021/05/30 14:19:04;;;;;;;;;;;27.90;91.40;;;;;;5127503;28;19912;-44
2021/05/30 14:21:31;;;;;;;;;;;27.90;91.40;;;;;;5126818;28;19915;-53
2021/05/30 14:23:57;;;;;;;;;;;27.90;90.90;;;;;;5127171;28;19986;-55